CheckWX is a tool to help pilots better visualize weather data.  It is not intended as a substitute for an official pre-flight weather briefing.

04:46:27 UTC

KARR METAR
Aurora Municipal Airport
Chicago/Aurora, Illinois, USA
Current

54 mins ago

KARR 270352Z AUTO 05003KT 10SM CLR 21/19 A3009 RMK AO2 SLP185 T02060189 TSNO
Observed
Jun-27 @ 03:52 UTC
Wind
  • 050° at 3 KTS
Visibility
10 SM
Flight Rules
VFR
Cloud Levels
  • Clear skies
Temperature
21°C / 70°F
Dewpoint
19°C / 66°F
Humidity
88%
Altimeter
30.09" Hg
Pressure
1018.92 hPa
Previous

2 hours ago

KARR 270252Z AUTO 03003KT 10SM CLR 22/18 A3008 RMK AO2 SLP180 60000 T02170178 51021 TSNO
Observed
Jun-27 @ 02:52 UTC
Wind
  • 030° at 3 KTS
Visibility
10 SM
Flight Rules
VFR
Cloud Levels
  • Clear skies
Temperature
22°C / 72°F
Dewpoint
18°C / 64°F
Humidity
78%
Altimeter
30.08" Hg
Pressure
1018.62 hPa
Previous

3 hours ago

KARR 270152Z AUTO 09006KT 10SM BKN055 22/18 A3007 RMK AO2 SLP178 T02170178 TSNO
Observed
Jun-27 @ 01:52 UTC
Wind
  • 090° at 6 KTS
Visibility
10 SM
Flight Rules
VFR
Cloud Levels
  • Broken at 5,500' AGL
Temperature
22°C / 72°F
Dewpoint
18°C / 64°F
Humidity
78%
Altimeter
30.07" Hg
Pressure
1018.32 hPa